Time;durP1;ratioP1;P1;durP2;ratioP2;P2;SDS_P1;SDS_P2;PMS_P1;PMS_P2;Temp;Humidity;BMP_temperature;BMP_pressure;BME280_temperature;BME280_humidity;BME280_pressure;Samples;Min_cycle;Max_cycle;Signal;HPM_P1;HPM_P2
2020/12/07 00:00:27;;;;;;;19.73;9.63;;;;;;;-6.54;75.10;101531.53;1757376;81;21148;-62
2020/12/07 00:02:55;;;;;;;15.27;8.93;;;;;;;-6.61;75.26;101541.99;1759466;81;21136;-63
2020/12/07 00:05:23;;;;;;;21.80;9.60;;;;;;;-6.61;75.37;101539.38;1745480;81;21104;-64
2020/12/07 00:07:51;;;;;;;18.13;10.07;;;;;;;-6.66;75.42;101542.27;1743135;81;21760;-68
2020/12/07 00:10:20;;;;;;;19.13;10.73;;;;;;;-6.66;75.56;101551.90;1755119;81;21560;-63
2020/12/07 00:12:47;;;;;;;20.90;9.80;;;;;;;-6.65;75.62;101557.05;1730187;81;21026;-62
2020/12/07 00:15:15;;;;;;;20.73;10.57;;;;;;;-6.59;75.53;101555.84;1739964;81;21177;-61
2020/12/07 00:17:43;;;;;;;20.80;12.20;;;;;;;-6.58;75.42;101548.37;1748351;81;21152;-63
2020/12/07 00:20:14;;;;;;;17.27;9.07;;;;;;;-6.62;75.40;101547.69;1750088;81;21129;-64
2020/12/07 00:22:42;;;;;;;18.13;10.03;;;;;;;-6.69;75.30;101552.09;1759110;81;22319;-63
2020/12/07 00:25:09;;;;;;;26.43;8.60;;;;;;;-6.80;75.48;101557.12;1754211;81;21688;-64
2020/12/07 00:27:37;;;;;;;20.50;11.07;;;;;;;-6.80;75.58;101550.59;1759236;81;21636;-64
2020/12/07 00:30:05;;;;;;;16.57;8.47;;;;;;;-6.75;75.54;101559.84;1734014;81;21125;-63
2020/12/07 00:32:34;;;;;;;19.23;10.67;;;;;;;-6.71;75.41;101563.11;1733891;81;21325;-64
2020/12/07 00:35:03;;;;;;;18.03;9.00;;;;;;;-6.76;75.28;101566.01;1735344;81;21720;-64
2020/12/07 00:37:31;;;;;;;11.40;7.03;;;;;;;-6.81;75.40;101565.44;1758927;81;21033;-63
2020/12/07 00:39:58;;;;;;;20.10;11.07;;;;;;;-6.82;75.49;101565.55;1748420;81;21601;-65
2020/12/07 00:42:26;;;;;;;18.33;9.00;;;;;;;-6.88;75.53;101562.00;1759168;81;21818;-64
2020/12/07 00:44:54;;;;;;;24.00;9.97;;;;;;;-6.86;75.55;101565.37;1759106;81;21358;-65
2020/12/07 00:47:21;;;;;;;22.93;8.87;;;;;;;-6.85;75.51;101563.11;1749102;81;21168;-65
2020/12/07 00:49:49;;;;;;;18.83;10.17;;;;;;;-6.85;75.43;101562.64;1729800;81;21021;-66
2020/12/07 00:52:17;;;;;;;10.60;6.70;;;;;;;-6.94;75.40;101555.35;1728928;83;21604;-69
2020/12/07 00:54:46;;;;;;;10.07;6.10;;;;;;;-6.91;75.39;101563.03;1732767;81;21561;-63
2020/12/07 00:57:13;;;;;;;21.83;10.80;;;;;;;-6.90;75.29;101563.84;1748163;81;21558;-65
2020/12/07 00:59:41;;;;;;;8.50;6.03;;;;;;;-7.04;75.57;101564.67;1732164;81;21132;-65
2020/12/07 01:02:10;;;;;;;14.80;9.33;;;;;;;-7.13;75.81;101559.54;1722339;82;21623;-62
2020/12/07 01:04:38;;;;;;;19.13;9.67;;;;;;;-7.14;75.89;101568.77;1728898;83;21116;-63
2020/12/07 01:07:09;;;;;;;17.10;8.30;;;;;;;-7.10;75.77;101561.14;1742286;81;21148;-65
2020/12/07 01:09:39;;;;;;;12.80;7.83;;;;;;;-7.01;75.73;101564.52;1706088;83;22392;-63
2020/12/07 01:12:08;;;;;;;17.27;10.33;;;;;;;-7.06;75.40;101562.64;1729039;83;21159;-64
2020/12/07 01:14:40;;;;;;;17.03;9.77;;;;;;;-7.06;75.51;101556.10;1735248;81;21049;-63
2020/12/07 01:17:08;;;;;;;20.70;8.73;;;;;;;-7.03;75.36;101556.38;1716830;81;21124;-65
2020/12/07 01:19:35;;;;;;;19.50;11.37;;;;;;;-7.08;75.32;101556.19;1746355;81;21628;-64
2020/12/07 01:22:05;;;;;;;17.57;8.67;;;;;;;-7.09;75.32;101551.88;1728611;81;21202;-64
2020/12/07 01:24:34;;;;;;;26.80;11.40;;;;;;;-7.10;75.26;101555.42;1746018;81;21140;-67
2020/12/07 01:27:02;;;;;;;35.57;14.40;;;;;;;-7.12;75.35;101552.08;1749973;81;21553;-63
2020/12/07 01:29:30;;;;;;;40.40;17.97;;;;;;;-7.19;75.35;101552.05;1740237;81;21054;-63
2020/12/07 01:32:00;;;;;;;50.73;17.50;;;;;;;-7.26;75.40;101551.20;1713164;82;21132;-62
2020/12/07 01:34:28;;;;;;;34.40;16.43;;;;;;;-7.21;75.43;101555.23;1755059;81;21373;-64
2020/12/07 01:36:55;;;;;;;29.30;14.20;;;;;;;-7.17;75.33;101548.89;1735441;81;21126;-63
2020/12/07 01:39:23;;;;;;;31.87;14.83;;;;;;;-7.14;75.16;101547.39;1757917;81;21106;-65
2020/12/07 01:41:51;;;;;;;32.10;11.27;;;;;;;-7.15;75.08;101546.20;1759171;81;21112;-62
2020/12/07 01:44:20;;;;;;;29.37;14.33;;;;;;;-7.17;74.92;101545.43;1759336;81;21140;-63
2020/12/07 01:46:48;;;;;;;26.93;12.60;;;;;;;-7.26;74.92;101541.59;1759174;81;21522;-65
2020/12/07 01:49:16;;;;;;;27.80;10.83;;;;;;;-7.24;75.04;101544.12;1759145;81;21156;-64
2020/12/07 01:51:44;;;;;;;18.90;9.20;;;;;;;-7.18;75.09;101535.44;1740913;81;20996;-64
2020/12/07 01:54:12;;;;;;;21.10;10.30;;;;;;;-7.12;74.83;101534.23;1752890;81;21601;-64
2020/12/07 01:56:40;;;;;;;21.23;12.50;;;;;;;-7.14;74.61;101530.39;1745324;81;21111;-63
2020/12/07 01:59:10;;;;;;;19.87;13.43;;;;;;;-7.06;74.74;101529.95;1759110;81;21281;-64
2020/12/07 02:01:42;;;;;;;20.57;12.57;;;;;;;-7.00;74.43;101532.18;1729243;82;21150;-62
2020/12/07 02:04:11;;;;;;;17.37;12.17;;;;;;;-6.90;74.37;101528.54;1728881;83;21134;-64
2020/12/07 02:06:40;;;;;;;20.93;13.20;;;;;;;-6.89;73.95;101525.84;1728931;82;21016;-66
2020/12/07 02:09:08;;;;;;;18.40;11.23;;;;;;;-6.92;73.68;101522.12;1767727;81;21146;-64
2020/12/07 02:11:49;;;;;;;20.47;14.90;;;;;;;-6.95;73.67;101523.59;1889275;76;22658;-64
2020/12/07 02:14:18;;;;;;;19.80;15.10;;;;;;;-7.02;73.60;101520.98;1858029;77;20987;-65
2020/12/07 02:16:46;;;;;;;20.90;15.07;;;;;;;-6.96;73.66;101526.33;1850597;75;21091;-66
2020/12/07 02:19:14;;;;;;;19.67;12.97;;;;;;;-6.96;73.39;101525.02;1849808;77;20976;-65
2020/12/07 02:21:44;;;;;;;27.43;19.63;;;;;;;-7.08;73.35;101530.50;1847702;77;20988;-63
2020/12/07 02:24:24;;;;;;;22.83;14.63;;;;;;;-7.05;73.53;101528.53;1847458;76;23317;-63
2020/12/07 02:26:57;;;;;;;26.27;17.75;;;;;;;-7.09;73.52;101532.27;1815162;79;20999;-65
2020/12/07 02:29:29;;;;;;;23.07;17.27;;;;;;;-7.13;73.43;101533.39;1804525;79;21201;-63
2020/12/07 02:32:14;;;;;;;22.07;14.47;;;;;;;-7.12;73.54;101534.23;1780468;80;21005;-63
2020/12/07 02:34:43;;;;;;;19.33;13.63;;;;;;;-7.15;73.54;101534.43;1780113;80;20981;-66
2020/12/07 02:37:12;;;;;;;21.13;11.57;;;;;;;-7.29;73.59;101528.69;1784549;80;21663;-63
2020/12/07 02:39:41;;;;;;;19.03;11.53;;;;;;;-7.31;73.82;101531.87;1782079;80;21004;-65
2020/12/07 02:42:10;;;;;;;14.67;9.83;;;;;;;-7.33;73.73;101527.20;1784481;80;21195;-63
2020/12/07 02:44:39;;;;;;;13.53;8.37;;;;;;;-7.42;73.72;101526.89;1735495;81;21001;-63
2020/12/07 02:47:08;;;;;;;14.40;8.20;;;;;;;-7.44;73.92;101520.94;1730984;82;21037;-64
2020/12/07 02:49:37;;;;;;;12.50;8.63;;;;;;;-7.51;73.96;101521.74;1732226;82;21616;-63
2020/12/07 02:52:05;;;;;;;15.33;9.33;;;;;;;-7.55;74.14;101515.02;1750640;81;21144;-64
2020/12/07 02:54:34;;;;;;;22.53;11.37;;;;;;;-7.67;74.38;101519.17;1786186;79;21360;-64
2020/12/07 02:57:04;;;;;;;21.63;13.13;;;;;;;-7.69;74.59;101519.74;1788130;79;21058;-63
2020/12/07 02:59:33;;;;;;;19.67;13.23;;;;;;;-7.74;74.78;101521.78;1795412;79;21607;-64
2020/12/07 03:02:01;;;;;;;19.67;11.10;;;;;;;-7.81;74.93;101520.89;1817159;79;21563;-65
2020/12/07 03:04:29;;;;;;;21.13;13.23;;;;;;;-7.85;75.18;101528.53;1816215;79;21149;-63
2020/12/07 03:06:58;;;;;;;22.87;11.53;;;;;;;-7.81;75.23;101537.41;1807254;79;21187;-63
2020/12/07 03:09:27;;;;;;;17.37;9.80;;;;;;;-7.76;75.20;101530.16;1817293;79;21166;-64
2020/12/07 03:11:56;;;;;;;20.63;10.93;;;;;;;-7.73;75.05;101536.53;1805883;79;21085;-63
2020/12/07 03:14:26;;;;;;;18.23;12.63;;;;;;;-7.73;75.07;101535.68;1790342;79;20991;-65
2020/12/07 03:16:54;;;;;;;17.93;10.27;;;;;;;-7.70;75.15;101538.11;1810036;79;21145;-62
2020/12/07 03:19:22;;;;;;;22.90;13.03;;;;;;;-7.59;74.93;101537.88;1817112;79;21863;-63
2020/12/07 03:21:50;;;;;;;27.83;12.40;;;;;;;-7.58;74.72;101533.00;1817022;79;21579;-64
2020/12/07 03:24:18;;;;;;;23.57;11.17;;;;;;;-7.69;74.70;101527.58;1816986;79;21391;-62
2020/12/07 03:26:47;;;;;;;15.93;9.80;;;;;;;-7.81;74.87;101525.66;1815153;79;21015;-64
2020/12/07 03:29:17;;;;;;;16.07;8.87;;;;;;;-7.88;75.09;101529.56;1816541;79;21178;-63
2020/12/07 03:31:46;;;;;;;14.47;9.10;;;;;;;-7.84;75.22;101531.06;1816193;79;21352;-64
2020/12/07 03:34:15;;;;;;;17.27;7.77;;;;;;;-7.80;75.17;101530.41;1793652;79;21133;-64
2020/12/07 03:36:44;;;;;;;19.47;10.93;;;;;;;-7.85;75.17;101533.29;1785165;79;21134;-65
2020/12/07 03:39:12;;;;;;;25.80;10.23;;;;;;;-7.84;75.17;101532.83;1784490;80;21549;-63
2020/12/07 03:41:42;;;;;;;17.83;9.73;;;;;;;-7.84;75.16;101531.06;1785070;79;21489;-64
2020/12/07 03:44:10;;;;;;;20.83;8.70;;;;;;;-7.88;75.06;101528.72;1784986;79;21201;-62
2020/12/07 03:46:39;;;;;;;15.07;9.63;;;;;;;-7.90;75.19;101527.95;1797580;79;21227;-63
2020/12/07 03:49:07;;;;;;;29.83;13.63;;;;;;;-7.89;75.17;101527.88;1816589;79;21145;-63
2020/12/07 03:51:35;;;;;;;26.77;10.37;;;;;;;-7.88;75.12;101526.11;1815421;79;21140;-64
2020/12/07 03:54:03;;;;;;;20.10;9.50;;;;;;;-7.84;75.02;101536.28;1816298;79;21102;-63
2020/12/07 03:56:32;;;;;;;15.47;6.87;;;;;;;-7.83;74.90;101539.74;1805302;79;21349;-64
2020/12/07 03:59:00;;;;;;;21.00;10.97;;;;;;;-7.84;74.83;101540.20;1790593;79;21830;-63
2020/12/07 04:01:28;;;;;;;17.00;9.37;;;;;;;-7.88;74.79;101540.47;1812993;79;21150;-63
2020/12/07 04:04:03;;;;;;;20.67;11.70;;;;;;;-7.88;74.82;101534.78;1804808;78;21094;-64
2020/12/07 04:06:32;;;;;;;;;;;;;;;-7.91;74.84;101531.52;1803306;79;21566;-63
2020/12/07 04:08:59;;;;;;;19.63;10.77;;;;;;;-7.90;74.80;101534.02;1816473;78;21437;-65
2020/12/07 04:11:26;;;;;;;20.97;10.20;;;;;;;-7.88;74.80;101526.11;1786225;79;21160;-63
2020/12/07 04:13:55;;;;;;;17.60;9.00;;;;;;;-7.86;74.70;101527.69;1815525;78;21047;-64
2020/12/07 04:16:27;;;;;;;17.97;8.77;;;;;;;-7.85;74.52;101520.23;1810256;79;21581;-64
2020/12/07 04:18:56;;;;;;;17.77;7.50;;;;;;;-7.80;74.62;101520.81;1816354;79;21106;-65
2020/12/07 04:21:23;;;;;;;19.13;8.33;;;;;;;-7.78;74.27;101519.44;1815790;79;22889;-64
2020/12/07 04:23:51;;;;;;;16.20;10.23;;;;;;;-7.82;74.27;101520.08;1816339;79;21117;-63
2020/12/07 04:26:19;;;;;;;13.77;9.30;;;;;;;-7.81;74.31;101526.11;1807943;79;21173;-62
2020/12/07 04:28:46;;;;;;;18.60;10.03;;;;;;;-7.86;74.18;101522.46;1785079;79;21912;-65
2020/12/07 04:31:14;;;;;;;22.37;11.43;;;;;;;-7.85;74.34;101519.39;1784422;80;21105;-62
2020/12/07 04:33:41;;;;;;;18.67;9.27;;;;;;;-7.82;74.19;101513.55;1793148;79;21778;-63
2020/12/07 04:36:09;;;;;;;15.93;9.80;;;;;;;-7.79;74.14;101516.44;1792048;79;21169;-63
2020/12/07 04:38:37;;;;;;;19.73;8.63;;;;;;;-7.74;74.24;101511.33;1810343;79;21023;-62
2020/12/07 04:41:04;;;;;;;16.80;9.20;;;;;;;-7.64;73.76;101511.18;1785096;80;21093;-66
2020/12/07 04:43:32;;;;;;;19.13;9.33;;;;;;;-7.69;73.47;101514.98;1784567;80;21519;-66
2020/12/07 04:46:00;;;;;;;17.40;8.97;;;;;;;-7.72;73.53;101508.64;1807065;79;21191;-64
2020/12/07 04:48:27;;;;;;;16.40;9.37;;;;;;;-7.71;73.51;101509.84;1804704;79;21803;-63
2020/12/07 04:50:56;;;;;;;20.70;11.40;;;;;;;-7.67;73.41;101511.34;1785090;79;21121;-67
2020/12/07 04:53:23;;;;;;;15.90;9.53;;;;;;;-7.66;73.37;101505.65;1814177;79;21574;-68
2020/12/07 04:55:51;;;;;;;12.93;7.97;;;;;;;-7.62;73.20;101503.23;1796617;79;21664;-64
2020/12/07 04:58:19;;;;;;;14.17;6.43;;;;;;;-7.68;73.05;101510.98;1816344;79;21325;-64
2020/12/07 05:00:47;;;;;;;18.40;9.80;;;;;;;-7.80;73.13;101511.67;1816436;79;21055;-67
2020/12/07 05:03:14;;;;;;;13.23;9.27;;;;;;;-7.91;73.36;101510.63;1810163;79;21556;-63
2020/12/07 05:05:43;;;;;;;14.67;8.23;;;;;;;-7.90;73.49;101509.21;1784497;79;21161;-64
2020/12/07 05:08:11;;;;;;;13.13;8.77;;;;;;;-7.86;73.47;101509.41;1813757;79;21590;-67
2020/12/07 05:10:41;;;;;;;16.47;8.70;;;;;;;-7.89;73.49;101514.81;1787191;79;21349;-64
2020/12/07 05:15:52;;;;;;;16.73;9.73;;;;;;;-7.88;73.57;101501.30;1889276;75;22660;-64
2020/12/07 05:18:20;;;;;;;26.80;12.13;;;;;;;-7.88;73.55;101502.14;1852912;77;20920;-64
2020/12/07 05:20:48;;;;;;;19.30;11.83;;;;;;;-7.81;73.45;101502.61;1856442;77;21586;-63
2020/12/07 05:23:16;;;;;;;18.10;9.83;;;;;;;-7.88;73.43;101501.30;1786279;78;21062;-63
2020/12/07 05:25:45;;;;;;;20.87;8.90;;;;;;;-7.92;73.40;101499.80;1791463;80;21591;-63
2020/12/07 05:28:26;;;;;;;27.30;10.07;;;;;;;-7.90;73.44;101501.84;1775329;79;21050;-65
2020/12/07 05:30:53;;;;;;;17.90;9.00;;;;;;;-7.93;73.35;101495.03;1770673;81;20998;-64
2020/12/07 05:33:21;;;;;;;19.57;11.13;;;;;;;-7.99;73.42;101494.07;1778262;78;21342;-64
2020/12/07 05:35:53;;;;;;;16.93;9.40;;;;;;;-8.02;73.59;101491.19;1825011;78;20999;-69
2020/12/07 05:38:20;;;;;;;28.47;13.53;;;;;;;-7.98;73.54;101494.45;1793153;78;20984;-65
2020/12/07 05:40:48;;;;;;;20.40;12.47;;;;;;;-7.98;73.38;101493.99;1789973;80;21102;-64
2020/12/07 05:43:16;;;;;;;20.17;12.00;;;;;;;-8.01;73.40;101494.15;1790675;78;21154;-63
2020/12/07 05:45:44;;;;;;;16.40;8.67;;;;;;;-7.98;73.39;101490.08;1791739;78;21195;-65
2020/12/07 05:48:12;;;;;;;27.20;11.93;;;;;;;-7.98;73.36;101495.30;1779336;80;21129;-63
2020/12/07 05:50:43;;;;;;;20.67;11.00;;;;;;;-8.06;73.53;101501.43;1759106;80;21205;-63
2020/12/07 05:53:11;;;;;;;13.97;9.17;;;;;;;-8.03;73.66;101503.01;1779631;79;21097;-64
2020/12/07 05:55:38;;;;;;;17.43;9.50;;;;;;;-8.05;73.65;101506.16;1781890;79;21533;-62
2020/12/07 05:58:08;;;;;;;21.33;9.83;;;;;;;-8.07;73.68;101511.95;1757152;81;21815;-63
2020/12/07 06:00:36;;;;;;;10.93;6.90;;;;;;;-8.02;73.69;101517.29;1762409;81;21603;-62
2020/12/07 06:03:06;;;;;;;20.70;10.83;;;;;;;-8.06;73.64;101516.25;1783608;79;21141;-63
2020/12/07 06:05:33;;;;;;;14.93;8.17;;;;;;;-8.09;73.74;101517.23;1797503;79;21179;-64
2020/12/07 06:08:13;;;;;;;21.27;11.30;;;;;;;-8.05;73.73;101516.59;1764550;79;21153;-63
2020/12/07 06:10:53;;;;;;;15.17;7.20;;;;;;;-8.02;73.75;101521.67;1751071;82;21527;-64
2020/12/07 06:13:25;;;;;;;27.63;10.90;;;;;;;-7.92;73.70;101523.30;1784766;79;21145;-63
2020/12/07 06:15:53;;;;;;;19.02;9.10;;;;;;;-7.99;73.56;101516.27;1730662;79;21599;-65
2020/12/07 06:18:34;;;;;;;21.93;10.83;;;;;;;-7.97;73.65;101519.18;1730341;81;21136;-62
2020/12/07 06:21:13;;;;;;;20.23;9.20;;;;;;;-7.97;73.56;101523.09;1790035;78;21613;-62
2020/12/07 06:23:41;;;;;;;25.00;12.07;;;;;;;-7.99;73.62;101517.56;1791406;80;21322;-63
2020/12/07 06:26:11;;;;;;;23.03;13.77;;;;;;;-7.97;73.70;101519.18;1811924;79;21543;-63
2020/12/07 06:28:41;;;;;;;22.27;11.63;;;;;;;-7.95;73.72;101529.05;1795039;79;21551;-63
2020/12/07 06:31:19;;;;;;;26.10;9.97;;;;;;;-7.91;73.73;101519.76;1761503;79;21169;-65
2020/12/07 06:33:54;;;;;;;22.53;11.87;;;;;;;-7.89;73.74;101524.41;1733001;82;21140;-68
2020/12/07 06:36:30;;;;;;;20.27;11.57;;;;;;;-7.86;73.72;101521.16;1737219;81;21211;-63
2020/12/07 06:38:59;;;;;;;21.67;11.73;;;;;;;-7.83;73.75;101521.46;1764313;81;21192;-65
2020/12/07 06:41:46;;;;;;;23.73;10.67;;;;;;;-7.79;73.73;101526.42;1733073;81;21597;-65
2020/12/07 06:44:17;;;;;;;33.37;13.80;;;;;;;-7.83;73.76;101516.23;1764899;81;21116;-66
2020/12/07 06:47:03;;;;;;;23.30;13.53;;;;;;;-7.79;73.80;101512.52;1756530;80;21638;-65
2020/12/07 06:52:15;;;;;;;30.57;12.63;;;;;;;-7.68;73.81;101510.14;1883365;76;22827;-64
2020/12/07 06:55:07;;;;;;;22.90;10.83;;;;;;;-7.74;73.84;101503.50;1889193;75;20991;-66
2020/12/07 06:57:49;;;;;;;25.77;12.57;;;;;;;-7.73;73.94;101512.17;1812823;79;21362;-63
2020/12/07 07:00:26;;;;;;;19.63;11.57;;;;;;;-7.65;73.73;101503.42;1882353;75;20969;-64
2020/12/07 07:03:02;;;;;;;26.00;13.33;;;;;;;-7.63;73.49;101500.27;1859592;76;20940;-63
2020/12/07 07:05:31;;;;;;;26.27;13.33;;;;;;;-7.59;73.49;101497.84;1854421;77;21559;-65
2020/12/07 07:07:59;;;;;;;23.43;11.87;;;;;;;-7.54;73.30;101493.20;1855372;75;20979;-65
2020/12/07 07:10:26;;;;;;;22.87;12.40;;;;;;;-7.56;73.24;101493.73;1854507;77;21185;-65
2020/12/07 07:12:54;;;;;;;24.93;14.07;;;;;;;-7.55;73.25;101494.13;1854800;76;21070;-63
2020/12/07 07:15:23;;;;;;;24.30;13.57;;;;;;;-7.48;73.33;101500.66;1856159;76;20968;-66
2020/12/07 07:17:51;;;;;;;23.60;11.83;;;;;;;-7.41;73.21;101506.37;1854364;77;20975;-69
2020/12/07 07:20:20;;;;;;;18.37;10.53;;;;;;;-7.40;72.82;101493.22;1854423;77;21153;-64
2020/12/07 07:22:49;;;;;;;21.33;9.47;;;;;;;-7.36;72.67;101499.09;1856897;76;21407;-65
2020/12/07 07:28:07;;;;;;;29.97;12.50;;;;;;;-7.31;72.03;101495.75;1873505;76;21157;-64
2020/12/07 07:30:34;;;;;;;37.60;14.50;;;;;;;-7.33;71.95;101496.30;1889236;76;21594;-64
2020/12/07 07:33:02;;;;;;;31.90;13.67;;;;;;;-7.27;71.85;101505.93;1889167;76;21102;-65
2020/12/07 07:35:32;;;;;;;25.87;15.70;;;;;;;-7.23;71.77;101499.58;1875248;76;21240;-65
2020/12/07 07:37:59;;;;;;;26.63;12.30;;;;;;;-7.16;71.78;101505.30;1889184;76;21129;-64
2020/12/07 07:40:29;;;;;;;17.90;9.03;;;;;;;-7.15;71.67;101506.52;1889421;76;21082;-64
2020/12/07 07:43:02;;;;;;;41.20;15.30;;;;;;;-7.11;71.48;101498.86;1890891;76;21125;-64
2020/12/07 07:45:38;;;;;;;37.10;15.33;;;;;;;-7.07;71.29;101501.66;1863380;76;21110;-63
2020/12/07 08:16:20;;;;;;;20.33;11.70;;;;;;;-6.64;69.04;101488.55;1787097;79;21573;-67
2020/12/07 08:18:49;;;;;;;33.17;12.53;;;;;;;-6.61;68.93;101487.05;1785163;79;20994;-65
2020/12/07 08:21:34;;;;;;;23.03;11.37;;;;;;;-6.49;68.92;101491.52;1811218;79;20948;-70
2020/12/07 08:24:07;;;;;;;20.37;9.27;;;;;;;-6.39;68.75;101486.55;1799225;79;21010;-63
2020/12/07 08:26:43;;;;;;;25.60;11.30;;;;;;;-6.30;68.48;101481.57;1785136;80;21403;-64
2020/12/07 08:29:11;;;;;;;31.10;11.67;;;;;;;-6.28;68.15;101485.38;1786127;80;21965;-67
2020/12/07 08:31:40;;;;;;;29.37;11.43;;;;;;;-6.30;68.03;101472.41;1814264;79;21540;-64
2020/12/07 08:34:14;;;;;;;22.20;10.87;;;;;;;-6.22;68.22;101461.43;1815669;79;21570;-64
2020/12/07 08:36:45;;;;;;;19.60;11.47;;;;;;;-6.19;67.88;101472.53;1814581;79;21134;-65
2020/12/07 08:39:12;;;;;;;24.97;12.43;;;;;;;-6.14;67.85;101464.88;1817177;79;21405;-63
2020/12/07 08:41:40;;;;;;;26.73;12.87;;;;;;;-6.13;67.44;101470.46;1817016;79;21007;-69
2020/12/07 08:44:09;;;;;;;19.37;8.80;;;;;;;-6.05;67.56;101462.97;1788762;79;21081;-65
2020/12/07 08:46:39;;;;;;;32.97;14.40;;;;;;;-5.99;67.36;101462.55;1784971;79;21113;-64
2020/12/07 08:49:07;;;;;;;25.13;12.53;;;;;;;-5.93;67.30;101475.25;1804363;79;21150;-64
2020/12/07 08:51:36;;;;;;;16.03;10.03;;;;;;;-5.86;67.36;101459.48;1815223;79;21481;-64
2020/12/07 08:54:07;;;;;;;14.70;7.60;;;;;;;-5.75;66.91;101453.03;1789872;79;21126;-65
2020/12/07 08:56:35;;;;;;;30.13;13.20;;;;;;;-5.69;66.24;101468.83;1716287;82;21573;-66
2020/12/07 08:59:02;;;;;;;21.50;11.10;;;;;;;-5.66;66.50;101466.02;1718973;83;21128;-64
2020/12/07 09:01:31;;;;;;;25.90;12.03;;;;;;;-5.60;66.24;101462.50;1744658;81;21609;-64
2020/12/07 09:04:02;;;;;;;34.17;16.30;;;;;;;-5.59;65.90;101454.17;1813770;79;21531;-63
2020/12/07 09:06:29;;;;;;;15.80;10.17;;;;;;;-5.52;66.06;101445.81;1815148;79;21571;-65
2020/12/07 09:08:57;;;;;;;19.50;10.73;;;;;;;-5.44;65.77;101442.19;1810114;78;21062;-63
2020/12/07 09:11:26;;;;;;;23.20;13.23;;;;;;;-5.37;65.73;101425.08;1795395;79;20979;-66
2020/12/07 09:13:53;;;;;;;20.10;10.33;;;;;;;-5.38;65.29;101438.31;1765563;80;21139;-63
2020/12/07 09:16:21;;;;;;;14.90;8.13;;;;;;;-5.37;65.14;101422.45;1780547;80;21191;-65
2020/12/07 09:18:48;;;;;;;24.43;11.70;;;;;;;-5.33;64.98;101429.19;1761340;81;21770;-62
2020/12/07 09:21:16;;;;;;;29.77;14.70;;;;;;;-5.32;64.87;101432.63;1785954;79;21680;-63
2020/12/07 09:23:44;;;;;;;25.60;10.73;;;;;;;-5.30;65.24;101430.75;1751483;80;21004;-67
2020/12/07 09:26:12;;;;;;;20.60;11.97;;;;;;;-5.21;65.14;101437.14;1800458;77;21138;-67
2020/12/07 09:28:39;;;;;;;20.83;11.27;;;;;;;-5.19;64.98;101428.23;1792775;80;21364;-65
2020/12/07 09:31:08;;;;;;;22.47;13.37;;;;;;;-5.21;64.80;101424.86;1811817;79;21547;-64
2020/12/07 09:33:37;;;;;;;16.33;10.20;;;;;;;-5.18;64.78;101419.90;1764083;80;21184;-64
2020/12/07 09:36:05;;;;;;;22.90;11.60;;;;;;;-5.13;64.52;101419.92;1736937;81;21178;-64
2020/12/07 09:38:33;;;;;;;17.60;10.07;;;;;;;-5.12;63.91;101426.84;1805942;79;21520;-65
2020/12/07 09:41:00;;;;;;;14.60;8.97;;;;;;;-5.12;64.14;101423.38;1782108;80;21180;-64
2020/12/07 09:43:29;;;;;;;12.73;7.93;;;;;;;-5.13;64.03;101419.11;1790483;79;21106;-66
2020/12/07 09:45:56;;;;;;;28.23;11.03;;;;;;;-5.09;64.15;101428.44;1759165;81;20993;-63
2020/12/07 09:48:24;;;;;;;23.33;12.87;;;;;;;-5.06;64.23;101419.87;1720624;81;22491;-69
2020/12/07 09:50:52;;;;;;;19.50;12.53;;;;;;;-5.00;64.21;101417.30;1671671;85;21152;-65
2020/12/07 09:53:19;;;;;;;15.37;9.97;;;;;;;-5.00;64.00;101423.85;1671781;85;21233;-63
2020/12/07 09:55:48;;;;;;;21.80;11.33;;;;;;;-4.96;64.05;101412.20;1671774;85;21575;-64
2020/12/07 09:58:16;;;;;;;20.57;11.10;;;;;;;-4.84;63.78;101423.96;1703035;83;21139;-64
2020/12/07 10:00:44;;;;;;;30.73;13.77;;;;;;;-4.71;63.68;101418.70;1712935;83;21063;-66
2020/12/07 10:03:13;;;;;;;20.20;10.00;;;;;;;-4.64;63.33;101414.67;1712358;83;21080;-64
2020/12/07 10:05:42;;;;;;;17.23;9.27;;;;;;;-4.61;63.17;101407.91;1712271;83;21451;-63
2020/12/07 10:08:11;;;;;;;24.33;13.37;;;;;;;-4.58;63.01;101406.83;1715399;82;21158;-65
2020/12/07 10:10:42;;;;;;;17.23;11.47;;;;;;;-4.56;63.28;101400.54;1709166;83;21123;-63
2020/12/07 10:13:12;;;;;;;21.00;10.70;;;;;;;-4.53;63.09;101404.24;1717094;83;21103;-64
2020/12/07 10:15:40;;;;;;;15.77;8.03;;;;;;;-4.50;62.77;101400.07;1717183;83;21183;-64
2020/12/07 10:18:08;;;;;;;13.97;9.27;;;;;;;-4.52;62.80;101399.84;1717099;83;21499;-65
2020/12/07 10:20:37;;;;;;;21.77;9.63;;;;;;;-4.57;62.62;101388.83;1702235;83;22246;-64
2020/12/07 10:23:06;;;;;;;19.07;9.97;;;;;;;-4.58;62.99;101380.58;1688783;83;21095;-66
2020/12/07 10:25:34;;;;;;;17.60;10.30;;;;;;;-4.58;62.48;101367.45;1708397;83;21219;-63
2020/12/07 10:28:02;;;;;;;17.43;9.87;;;;;;;-4.62;62.52;101377.82;1775253;80;21145;-65
2020/12/07 10:30:31;;;;;;;27.23;13.13;;;;;;;-4.62;62.77;101368.63;1755664;80;21337;-64
2020/12/07 10:33:00;;;;;;;18.17;11.07;;;;;;;-4.53;62.72;101363.55;1752342;81;21146;-64
2020/12/07 10:35:28;;;;;;;20.90;10.37;;;;;;;-4.49;62.63;101365.47;1752370;81;21485;-64
2020/12/07 10:37:58;;;;;;;15.63;9.23;;;;;;;-4.53;62.49;101368.80;1754223;80;21192;-64
2020/12/07 10:40:27;;;;;;;13.87;9.83;;;;;;;-4.56;62.69;101375.60;1761126;80;21115;-67
2020/12/07 10:42:56;;;;;;;19.77;11.37;;;;;;;-4.53;62.68;101366.17;1755304;79;21160;-65
2020/12/07 10:45:24;;;;;;;15.03;9.40;;;;;;;-4.55;62.99;101369.37;1768333;81;21132;-67
2020/12/07 10:47:53;;;;;;;17.73;10.23;;;;;;;-4.59;62.80;101366.61;1788748;80;20961;-68
2020/12/07 10:50:22;;;;;;;21.87;9.07;;;;;;;-4.55;62.98;101358.03;1792066;79;21200;-67
2020/12/07 10:52:51;;;;;;;18.10;8.43;;;;;;;-4.50;62.97;101348.87;1767775;81;21167;-67
2020/12/07 10:55:19;;;;;;;22.03;12.77;;;;;;;-4.43;62.72;101354.52;1767799;81;21369;-67
2020/12/07 10:57:47;;;;;;;23.13;11.07;;;;;;;-4.40;62.48;101352.50;1767694;81;20973;-73
2020/12/07 11:00:15;;;;;;;28.30;11.77;;;;;;;-4.34;62.71;101349.91;1777296;80;21574;-65
2020/12/07 11:02:45;;;;;;;15.07;9.60;;;;;;;-4.14;62.99;101352.36;1767827;81;21625;-69
2020/12/07 11:05:13;;;;;;;20.87;9.80;;;;;;;-4.11;62.90;101352.13;1767623;81;21172;-67
2020/12/07 11:07:45;;;;;;;25.87;11.17;;;;;;;-4.18;62.76;101350.45;1763724;81;21153;-65
2020/12/07 11:10:12;;;;;;;18.33;10.70;;;;;;;-4.20;62.87;101349.72;1728813;81;21095;-62
2020/12/07 11:12:43;;;;;;;17.50;9.87;;;;;;;-4.21;62.79;101348.50;1699825;83;21117;-62
2020/12/07 11:15:10;;;;;;;25.13;12.13;;;;;;;-4.25;62.91;101343.97;1698888;84;21169;-62
2020/12/07 11:17:39;;;;;;;23.73;11.90;;;;;;;-4.20;63.04;101342.31;1705342;83;21100;-62
2020/12/07 11:20:07;;;;;;;13.80;9.30;;;;;;;-4.12;62.70;101346.03;1707994;83;21389;-63
2020/12/07 11:22:35;;;;;;;25.60;11.03;;;;;;;-4.12;62.27;101335.99;1699368;84;21159;-65
2020/12/07 11:25:04;;;;;;;24.57;12.03;;;;;;;-4.13;62.14;101333.03;1716073;83;21198;-63
2020/12/07 11:27:34;;;;;;;11.17;7.83;;;;;;;-4.18;62.11;101336.00;1743348;81;21647;-65
2020/12/07 11:30:03;;;;;;;32.20;12.37;;;;;;;-4.20;62.20;101335.27;1768162;81;21089;-64
2020/12/07 11:32:33;;;;;;;22.50;13.23;;;;;;;-4.16;62.40;101330.61;1716751;83;21380;-65
2020/12/07 11:35:02;;;;;;;18.53;10.57;;;;;;;-4.16;62.35;101331.45;1728745;83;21032;-65
2020/12/07 11:37:32;;;;;;;19.70;11.47;;;;;;;-4.28;62.35;101341.58;1746764;81;21110;-63
2020/12/07 11:42:53;;;;;;;22.13;10.80;;;;;;;-4.19;63.01;101331.70;1863960;76;26718;-64
2020/12/07 11:45:14;;;;;;;27.43;14.30;;;;;;;-4.23;63.26;101328.10;1790162;77;21084;-68
2020/12/07 11:47:43;;;;;;;24.90;10.60;;;;;;;-4.23;63.31;101335.98;1762499;79;21374;-65
2020/12/07 11:50:11;;;;;;;20.97;12.33;;;;;;;-4.34;63.26;101324.95;1758658;81;21551;-66
2020/12/07 11:52:40;;;;;;;20.93;9.87;;;;;;;-4.38;62.92;101320.89;1751024;82;21008;-69
2020/12/07 11:55:08;;;;;;;15.27;6.20;;;;;;;-4.45;62.91;101320.97;1750897;82;21065;-63
2020/12/07 11:57:36;;;;;;;24.33;9.50;;;;;;;-4.52;63.17;101306.16;1775261;80;21025;-62
2020/12/07 12:00:04;;;;;;;31.47;11.17;;;;;;;-4.58;63.24;101308.39;1777438;80;21376;-66